Time;durP1;ratioP1;P1;durP2;ratioP2;P2;SDS_P1;SDS_P2;PMS_P1;PMS_P2;Temp;Humidity;BMP_temperature;BMP_pressure;BME280_temperature;BME280_humidity;BME280_pressure;Samples;Min_cycle;Max_cycle;Signal;HPM_P1;HPM_P2
2022/06/05 05:07:03;;;;;;;14.85;5.50;;;;;;;14.10;77.40;101588.56;5091890;27;98269;-33
2022/06/05 05:09:29;;;;;;;18.65;5.07;;;;;;;14.09;76.37;101581.38;5054786;27;99581;-34
2022/06/05 05:11:54;;;;;;;18.77;6.43;;;;;;;14.08;76.84;101577.75;5054608;27;96502;-35
2022/06/05 05:14:19;;;;;;;17.88;6.10;;;;;;;14.14;76.20;101577.38;5056459;27;96612;-34
2022/06/05 05:16:45;;;;;;;20.55;5.82;;;;;;;14.12;75.68;101573.00;5055928;27;102269;-34
2022/06/05 05:19:10;;;;;;;22.08;6.32;;;;;;;14.17;75.35;101573.56;5055752;27;99248;-34
2022/06/05 05:21:36;;;;;;;14.73;6.20;;;;;;;14.09;76.05;101560.44;5056179;27;96729;-34
2022/06/05 05:24:01;;;;;;;14.10;5.03;;;;;;;14.12;76.68;101570.25;5056255;27;96808;-34
2022/06/05 05:26:30;;;;;;;15.70;6.13;;;;;;;14.09;77.04;101570.47;5055770;27;97933;-34
2022/06/05 05:28:57;;;;;;;16.27;5.57;;;;;;;14.15;76.81;101575.50;5089180;27;101030;-34
2022/06/05 05:31:26;;;;;;;14.38;6.18;;;;;;;14.14;76.85;101573.78;5088949;27;96635;-34
2022/06/05 05:33:52;;;;;;;19.25;6.82;;;;;;;14.19;75.92;101577.94;5088875;27;96895;-34
2022/06/05 05:36:18;;;;;;;16.45;5.57;;;;;;;14.20;76.15;101576.06;5087921;27;101080;-34
2022/06/05 05:44:13;;;;;;;19.02;6.70;;;;;;;14.20;75.92;101571.50;5056059;27;96513;-34
2022/06/05 05:46:38;;;;;;;19.27;6.50;;;;;;;14.22;76.19;101582.31;5053944;27;100758;-34
2022/06/05 05:49:04;;;;;;;14.55;6.22;;;;;;;14.19;76.39;101574.34;5053981;27;100799;-34
2022/06/05 05:51:29;;;;;;;16.42;6.30;;;;;;;14.19;76.19;101577.06;5055995;27;96542;-34
2022/06/05 05:53:54;;;;;;;16.98;5.57;;;;;;;14.19;77.24;101587.97;5056181;27;96963;-34
2022/06/05 05:56:20;;;;;;;14.05;5.72;;;;;;;14.15;76.57;101579.09;5055288;27;101997;-34
2022/06/05 05:58:46;;;;;;;13.50;5.45;;;;;;;14.26;76.37;101589.31;5054944;27;109232;-34
2022/06/05 06:01:12;;;;;;;21.00;7.63;;;;;;;14.27;75.66;101585.59;5055179;27;96777;-34
2022/06/05 06:03:37;;;;;;;25.95;6.70;;;;;;;14.29;76.45;101594.56;5055488;27;96781;-34
2022/06/05 06:06:03;;;;;;;20.25;7.85;;;;;;;14.29;76.17;101589.09;5055355;27;97969;-34
2022/06/05 06:08:30;;;;;;;14.00;5.93;;;;;;;14.28;77.17;101576.47;5053380;27;100680;-34
2022/06/05 06:10:55;;;;;;;18.10;5.97;;;;;;;14.27;76.84;101579.28;5054104;27;96592;-34
2022/06/05 06:13:22;;;;;;;14.98;7.00;;;;;;;14.32;75.47;101579.84;5055420;27;96863;-34
2022/06/05 06:15:47;;;;;;;21.92;5.78;;;;;;;14.33;76.15;101573.44;5055128;27;97998;-35
2022/06/05 06:18:14;;;;;;;19.70;6.50;;;;;;;14.31;76.15;101576.25;5055496;27;97399;-34
2022/06/05 06:20:40;;;;;;;16.50;6.50;;;;;;;14.39;76.22;101584.78;5053913;27;96490;-34
2022/06/05 06:23:06;;;;;;;20.35;7.13;;;;;;;14.37;75.73;101567.69;5053978;27;96830;-34
2022/06/05 06:25:31;;;;;;;25.02;7.43;;;;;;;14.43;76.50;101583.63;5054319;27;99530;-34
2022/06/05 06:27:56;;;;;;;15.13;5.95;;;;;;;14.43;76.97;101585.47;5054889;27;102000;-34
2022/06/05 06:30:22;;;;;;;19.02;5.45;;;;;;;14.40;76.42;101575.66;5054971;27;96668;-34
2022/06/05 06:32:47;;;;;;;17.48;6.60;;;;;;;14.42;76.05;101579.16;5055212;27;96899;-34
2022/06/05 06:35:12;;;;;;;15.85;5.57;;;;;;;14.43;75.58;101575.44;5054638;27;99034;-34
2022/06/05 06:37:38;;;;;;;16.88;6.25;;;;;;;14.48;76.00;101580.59;5054654;27;97522;-34
2022/06/05 06:40:04;;;;;;;18.33;7.07;;;;;;;14.49;75.58;101567.84;5054897;27;96471;-34
2022/06/05 06:42:29;;;;;;;19.67;5.85;;;;;;;14.40;76.29;101562.03;5055781;27;96796;-34
2022/06/05 06:44:56;;;;;;;15.43;5.57;;;;;;;14.46;76.01;101558.00;5054883;27;97528;-35
2022/06/05 06:47:21;;;;;;;16.38;5.60;;;;;;;14.54;76.75;101562.97;5054825;27;97396;-34
2022/06/05 06:49:47;;;;;;;14.50;5.10;;;;;;;14.56;75.51;101548.28;5052936;27;96558;-34
2022/06/05 06:52:12;;;;;;;14.82;6.43;;;;;;;14.56;76.26;101548.28;5055056;27;96764;-34
2022/06/05 06:54:38;;;;;;;18.45;5.60;;;;;;;14.59;76.12;101550.81;5054644;27;98121;-34
2022/06/05 06:57:03;;;;;;;11.02;4.82;;;;;;;14.56;76.59;101541.94;5054549;27;97285;-34
2022/06/05 06:59:29;;;;;;;14.43;6.90;;;;;;;14.59;76.18;101541.75;5053280;27;96701;-34
2022/06/05 07:01:54;;;;;;;18.75;7.40;;;;;;;14.63;75.84;101537.81;5054665;27;96847;-34
2022/06/05 07:04:21;;;;;;;15.63;6.35;;;;;;;14.62;76.00;101528.78;5054523;27;98001;-34
2022/06/05 07:06:47;;;;;;;15.15;6.07;;;;;;;14.59;76.99;101522.69;5053361;27;101305;-33
2022/06/05 07:09:14;;;;;;;20.92;6.43;;;;;;;14.63;76.46;101519.63;5077188;27;96734;-34
2022/06/05 07:11:40;;;;;;;17.42;5.88;;;;;;;14.68;76.26;101513.84;5095493;27;96666;-34
2022/06/05 07:14:05;;;;;;;13.85;6.13;;;;;;;14.67;76.23;101509.38;5075844;27;100917;-34
2022/06/05 07:16:31;;;;;;;13.02;6.07;;;;;;;14.73;75.82;101513.53;5095751;27;97085;-34
2022/06/05 07:18:56;;;;;;;15.20;5.97;;;;;;;14.74;76.98;101502.53;5095829;27;96457;-34
2022/06/05 07:21:24;;;;;;;14.93;5.53;;;;;;;14.77;77.00;101502.31;5095505;27;96746;-34
2022/06/05 07:23:49;;;;;;;16.00;6.40;;;;;;;14.78;75.79;101492.28;5076650;27;100809;-34
2022/06/05 07:26:18;;;;;;;13.63;5.88;;;;;;;14.89;75.69;101499.72;5095284;27;98054;-34
2022/06/05 07:28:43;;;;;;;14.82;5.63;;;;;;;14.92;75.87;101483.13;5076795;27;96831;-34
2022/06/05 07:31:10;;;;;;;12.57;5.75;;;;;;;15.02;75.20;101489.72;5095913;27;96810;-34
2022/06/05 07:33:37;;;;;;;13.98;5.43;;;;;;;15.07;75.79;101476.63;5076316;27;101341;-34
2022/06/05 07:36:06;;;;;;;15.50;6.97;;;;;;;15.15;75.42;101476.06;5076652;27;100673;-34
2022/06/05 07:38:32;;;;;;;11.23;5.32;;;;;;;15.25;75.24;101479.88;5076162;27;96709;-34
2022/06/05 07:40:58;;;;;;;14.90;5.72;;;;;;;15.37;75.05;101473.53;5095367;27;96791;-34
2022/06/05 07:43:24;;;;;;;15.90;5.97;;;;;;;15.52;75.22;101468.84;5094945;27;98178;-34
2022/06/05 07:45:49;;;;;;;10.57;5.03;;;;;;;15.67;74.05;101455.94;5094764;27;99062;-34
2022/06/05 07:48:17;;;;;;;11.80;4.65;;;;;;;15.89;73.75;101461.56;5095290;27;96526;-34
2022/06/05 07:56:10;;;;;;;9.98;4.70;;;;;;;16.54;72.54;101443.94;5099177;27;96986;-34
2022/06/05 07:58:35;;;;;;;11.98;5.07;;;;;;;16.77;72.42;101441.25;5098704;27;96432;-34
2022/06/05 08:01:01;;;;;;;14.13;6.43;;;;;;;16.95;71.54;101436.25;5098542;27;96848;-34
2022/06/05 08:03:26;;;;;;;11.60;5.13;;;;;;;17.17;71.22;101439.00;5097866;27;98053;-34
2022/06/05 08:05:51;;;;;;;12.70;4.47;;;;;;;17.32;70.70;101442.34;5098057;27;98984;-34
2022/06/05 08:08:17;;;;;;;13.57;4.93;;;;;;;17.52;70.94;101439.88;5098219;27;96841;-34
2022/06/05 08:10:42;;;;;;;8.02;4.22;;;;;;;17.73;70.69;101445.47;5098287;27;96833;-34
2022/06/05 08:13:08;;;;;;;7.47;4.15;;;;;;;17.94;69.99;101442.84;5097609;27;99254;-34
2022/06/05 08:15:33;;;;;;;10.82;4.60;;;;;;;18.11;69.36;101436.81;5079475;27;101035;-34
2022/06/05 08:17:59;;;;;;;7.85;3.92;;;;;;;18.22;69.02;101428.56;5098142;27;96579;-34
2022/06/05 08:20:24;;;;;;;9.13;4.32;;;;;;;18.40;68.73;101436.22;5098736;27;96825;-34
2022/06/05 08:22:50;;;;;;;8.52;3.78;;;;;;;18.57;68.57;101443.03;5097596;27;99434;-34
2022/06/05 08:25:16;;;;;;;9.73;4.15;;;;;;;18.69;68.71;101420.03;5097818;27;99274;-34
2022/06/05 08:27:41;;;;;;;7.65;4.13;;;;;;;18.85;68.09;101441.53;5097941;27;96536;-34
2022/06/05 08:30:07;;;;;;;6.95;3.80;;;;;;;18.87;67.49;101425.78;5098179;27;96804;-34
2022/06/05 08:32:33;;;;;;;9.93;4.55;;;;;;;18.95;67.16;101437.00;5097480;27;99801;-34
2022/06/05 08:34:58;;;;;;;6.65;3.72;;;;;;;19.03;67.16;101434.44;5097617;27;99289;-34
2022/06/05 08:43:29;;;;;;;6.95;3.90;;;;;;;19.32;66.74;101425.47;5098009;27;96608;-34
2022/06/05 08:46:23;;;;;;;5.70;3.13;;;;;;;19.50;66.36;101423.84;5079168;27;100881;-35
2022/06/05 08:48:57;;;;;;;5.72;3.10;;;;;;;19.64;65.73;101427.19;5079238;27;96633;-34
2022/06/05 08:52:00;;;;;;;5.20;3.53;;;;;;;19.75;65.38;101429.00;5113864;27;96701;-34
2022/06/05 08:54:50;;;;;;;5.95;3.70;;;;;;;19.93;65.83;101430.09;5078445;27;100976;-34
2022/06/05 08:57:30;;;;;;;6.97;3.55;;;;;;;20.03;65.51;101417.22;5078612;27;99794;-34
2022/06/05 09:00:06;;;;;;;7.03;3.80;;;;;;;20.13;65.32;101426.34;5113539;27;96724;-34
2022/06/05 09:02:31;;;;;;;6.10;3.72;;;;;;;20.39;65.17;101433.19;5112697;27;96740;-34
2022/06/05 09:05:05;;;;;;;6.80;4.20;;;;;;;20.46;65.20;101439.84;5097271;27;98958;-34
2022/06/05 09:07:46;;;;;;;6.80;3.97;;;;;;;20.50;64.91;101441.31;5112625;27;100755;-34
2022/06/05 09:10:31;;;;;;;7.47;3.95;;;;;;;20.60;64.75;101461.47;5079373;27;96617;-34
2022/06/05 09:13:12;;;;;;;8.95;4.40;;;;;;;20.57;65.36;101450.75;5078865;27;96966;-34
2022/06/05 09:15:44;;;;;;;7.53;4.10;;;;;;;20.49;64.90;101436.78;5097345;27;97610;-34
2022/06/05 09:18:17;;;;;;;;;;;;;;;20.50;64.26;101438.56;5079003;27;100698;-34
2022/06/05 09:21:14;;;;;;;6.75;4.22;;;;;;;20.54;64.23;101439.97;5097091;27;96544;-34
2022/06/05 09:23:48;;;;;;;9.48;4.78;;;;;;;20.55;65.12;101444.50;5096116;27;96942;-34
2022/06/05 09:26:22;;;;;;;9.85;5.15;;;;;;;20.54;64.75;101439.97;5078347;27;100728;-34
2022/06/05 09:29:06;;;;;;;12.30;5.50;;;;;;;20.50;65.39;101444.06;5112840;27;100914;-34
2022/06/05 09:31:44;;;;;;;10.90;5.03;;;;;;;20.44;65.07;101448.25;5097004;27;96532;-35
2022/06/05 09:34:13;;;;;;;10.50;5.55;;;;;;;20.37;65.11;101442.44;5078382;27;96691;-34
2022/06/05 09:36:43;;;;;;;9.57;5.32;;;;;;;20.36;65.19;101442.59;5112676;27;100908;-34
2022/06/05 09:39:26;;;;;;;11.10;5.50;;;;;;;20.31;65.02;101436.66;5112968;27;100759;-34
2022/06/05 09:42:01;;;;;;;10.77;5.25;;;;;;;20.32;65.50;101425.50;5112945;27;96703;-34
2022/06/05 09:44:29;;;;;;;11.07;5.50;;;;;;;20.31;65.98;101439.41;5096815;27;96763;-34
2022/06/05 09:46:59;;;;;;;9.73;5.43;;;;;;;20.24;66.28;101436.34;5096232;27;97636;-34
2022/06/05 09:49:37;;;;;;;11.77;5.38;;;;;;;20.29;66.64;101433.19;5077955;27;99565;-34
2022/06/05 09:52:19;;;;;;;9.73;5.68;;;;;;;20.24;65.93;101419.84;5096768;27;96565;-34
2022/06/05 09:55:16;;;;;;;10.00;5.43;;;;;;;20.26;65.90;101419.69;5078129;27;96970;-35
2022/06/05 10:00:36;;;;;;;10.18;5.78;;;;;;;20.25;66.14;101421.56;5096570;27;96985;-34
2022/06/05 10:03:09;;;;;;;10.70;5.55;;;;;;;20.25;66.29;101415.22;5096540;27;96912;-34
2022/06/05 10:05:40;;;;;;;11.23;6.22;;;;;;;20.22;65.93;101413.63;5078380;27;96862;-34
2022/06/05 10:08:11;;;;;;;16.13;6.07;;;;;;;20.28;66.01;101415.78;5077030;27;101099;-34
2022/06/05 10:10:39;;;;;;;11.48;6.00;;;;;;;20.24;65.72;101408.84;5096177;27;98953;-34
2022/06/05 10:13:16;;;;;;;10.93;6.15;;;;;;;20.26;66.25;101415.06;5076160;27;96865;-34
2022/06/05 10:16:01;;;;;;;14.15;6.38;;;;;;;20.25;66.52;101407.81;5078004;27;96719;-34
2022/06/05 10:18:39;;;;;;;11.25;5.93;;;;;;;20.25;66.43;101405.06;5096296;27;98044;-34
2022/06/05 10:21:11;;;;;;;11.10;6.32;;;;;;;20.23;66.36;101396.09;5077457;27;100605;-34
2022/06/05 10:23:54;;;;;;;12.57;5.90;;;;;;;20.25;66.39;101402.31;5077811;27;96612;-35
2022/06/05 10:26:39;;;;;;;11.30;6.50;;;;;;;20.20;66.34;101390.00;5096377;27;96684;-34
2022/06/05 10:29:22;;;;;;;17.10;5.93;;;;;;;20.14;66.68;101378.59;5111874;27;100155;-34
2022/06/05 10:31:54;;;;;;;18.00;6.50;;;;;;;20.12;66.40;101371.47;5077704;27;101209;-34
2022/06/05 10:34:41;;;;;;;16.15;6.97;;;;;;;20.10;66.44;101379.00;5095677;27;96646;-34
2022/06/05 10:37:21;;;;;;;9.40;5.75;;;;;;;20.07;66.49;101387.53;5096453;27;96656;-34
2022/06/05 10:40:01;;;;;;;14.30;5.85;;;;;;;20.01;66.36;101375.22;5076586;27;101363;-34
2022/06/05 10:42:29;;;;;;;14.00;6.35;;;;;;;20.03;66.35;101378.72;5076816;27;100967;-34
2022/06/05 10:45:19;;;;;;;15.35;7.07;;;;;;;20.01;66.55;101379.88;5096037;27;96574;-34
2022/06/05 10:47:59;;;;;;;18.10;6.75;;;;;;;19.99;66.44;101384.63;5095801;27;96882;-34
2022/06/05 10:50:36;;;;;;;17.90;7.20;;;;;;;19.97;66.41;101381.16;5111726;27;101295;-34
2022/06/05 10:53:16;;;;;;;19.35;6.97;;;;;;;20.07;66.55;101390.28;5111540;27;100924;-34
2022/06/05 10:56:01;;;;;;;16.17;7.72;;;;;;;20.08;66.26;101384.63;5096159;27;96454;-34
2022/06/05 10:58:41;;;;;;;12.20;5.82;;;;;;;20.07;67.00;101390.28;5077719;27;96750;-34
2022/06/05 11:01:12;;;;;;;15.52;6.70;;;;;;;20.08;66.74;101381.88;5076973;27;100856;-35
2022/06/05 11:03:59;;;;;;;14.82;6.70;;;;;;;20.04;66.83;101385.06;5095471;27;99373;-34
2022/06/05 11:06:47;;;;;;;13.75;6.40;;;;;;;20.01;66.55;101375.22;5095984;27;96452;-34
2022/06/05 11:09:33;;;;;;;14.85;6.55;;;;;;;19.98;67.03;101374.66;5095748;27;96647;-34
2022/06/05 11:15:27;;;;;;;12.88;6.40;;;;;;;19.97;67.20;101367.41;5095891;27;96961;-34
2022/06/05 11:18:20;;;;;;;13.65;6.68;;;;;;;19.95;67.26;101364.81;5095696;27;96734;-34
2022/06/05 11:20:57;;;;;;;19.08;7.85;;;;;;;19.85;67.51;101351.03;5111713;27;96745;-34
2022/06/05 11:23:27;;;;;;;16.35;6.35;;;;;;;19.86;67.23;101361.03;5076659;27;101516;-34
2022/06/05 11:26:04;;;;;;;15.30;7.55;;;;;;;19.82;67.69;101354.06;5114378;27;100740;-34
2022/06/05 11:28:56;;;;;;;14.63;6.97;;;;;;;19.77;67.72;101356.38;5099248;27;96829;-34
2022/06/05 11:31:30;;;;;;;17.00;7.73;;;;;;;19.73;67.75;101363.16;5090571;27;96773;-34
2022/06/05 11:34:03;;;;;;;14.05;6.63;;;;;;;19.68;68.21;101362.72;5098386;27;97927;-34
2022/06/05 11:36:40;;;;;;;14.50;6.70;;;;;;;19.63;68.01;101354.00;5114621;27;100888;-34
2022/06/05 11:39:38;;;;;;;18.17;7.68;;;;;;;19.67;69.65;101364.56;5080350;27;96587;-34
2022/06/05 11:42:28;;;;;;;15.20;7.25;;;;;;;19.59;69.50;101358.91;5072970;27;96791;-34
2022/06/05 11:45:12;;;;;;;17.23;6.95;;;;;;;19.55;69.63;101368.44;5079954;27;100934;-34
2022/06/05 11:47:46;;;;;;;16.88;7.20;;;;;;;19.49;70.70;101364.38;5098402;27;99192;-34
2022/06/05 11:50:17;;;;;;;14.25;7.38;;;;;;;19.42;70.48;101371.44;5080310;27;96628;-34
2022/06/05 11:52:56;;;;;;;16.40;7.63;;;;;;;19.36;70.13;101366.50;5098951;27;96832;-34
2022/06/05 11:55:37;;;;;;;15.85;7.15;;;;;;;19.31;70.43;101375.16;5114234;27;100895;-34
2022/06/05 11:58:17;;;;;;;14.30;7.00;;;;;;;19.23;69.85;101368.63;5079644;27;100946;-34
2022/06/05 12:00:54;;;;;;;12.32;6.40;;;;;;;19.20;70.64;101360.66;5079579;27;96655;-34
2022/06/05 12:03:49;;;;;;;16.83;6.60;;;;;;;19.12;71.16;101353.13;5079945;27;96685;-34
2022/06/05 12:06:39;;;;;;;16.58;6.70;;;;;;;19.13;71.65;101353.97;5098178;27;99396;-34
2022/06/05 12:09:13;;;;;;;21.45;7.82;;;;;;;19.03;71.17;101346.56;5079225;27;100650;-34
2022/06/05 12:11:45;;;;;;;23.17;7.60;;;;;;;18.99;71.34;101347.84;5114468;27;96503;-34
2022/06/05 12:14:22;;;;;;;16.92;7.43;;;;;;;19.02;71.45;101352.19;5114279;27;97689;-34
2022/06/05 12:17:12;;;;;;;16.45;7.18;;;;;;;18.98;72.53;101345.25;5098370;27;97974;-34
2022/06/05 12:19:48;;;;;;;15.80;6.85;;;;;;;18.94;71.78;101344.63;5079707;27;100911;-34
2022/06/05 12:22:16;;;;;;;19.25;8.13;;;;;;;18.92;72.25;101337.53;5079798;27;96707;-34
2022/06/05 12:24:54;;;;;;;16.35;6.72;;;;;;;18.90;72.15;101334.91;5097997;27;96931;-34
2022/06/05 12:27:20;;;;;;;21.77;7.75;;;;;;;18.85;73.07;101334.47;5113583;27;101093;-34
2022/06/05 12:29:57;;;;;;;20.20;7.15;;;;;;;18.82;72.61;101343.84;5098036;27;97869;-34
2022/06/05 12:32:34;;;;;;;16.00;7.65;;;;;;;18.79;72.81;101332.28;5079442;27;96693;-35
2022/06/05 12:35:11;;;;;;;13.45;7.15;;;;;;;18.83;72.51;101334.63;5098001;27;96560;-34
2022/06/05 12:37:42;;;;;;;16.90;8.02;;;;;;;18.77;72.53;101334.28;5097145;27;97492;-34
2022/06/05 12:40:21;;;;;;;20.20;8.77;;;;;;;18.79;74.51;101337.78;5078956;27;100986;-34
2022/06/05 12:42:57;;;;;;;16.60;7.43;;;;;;;18.78;72.91;101339.66;5098119;27;96561;-34
2022/06/05 12:45:27;;;;;;;15.38;7.65;;;;;;;18.79;73.08;101332.28;5114189;27;96713;-34
2022/06/05 12:48:21;;;;;;;22.13;8.23;;;;;;;18.75;74.74;101330.78;5079266;27;101704;-34
2022/06/05 12:50:51;;;;;;;16.55;7.55;;;;;;;18.74;73.39;101332.66;5097775;27;97410;-34
2022/06/05 12:53:23;;;;;;;22.85;8.50;;;;;;;18.80;74.78;101345.00;5078858;27;96630;-34
2022/06/05 12:55:54;;;;;;;17.88;7.38;;;;;;;18.72;74.10;101339.28;5079141;27;96726;-34
2022/06/05 12:58:29;;;;;;;16.85;8.38;;;;;;;18.75;74.09;101341.75;5078813;27;100765;-35
2022/06/05 13:01:05;;;;;;;19.40;7.70;;;;;;;18.77;73.40;101348.00;5078644;27;100703;-34
2022/06/05 13:03:59;;;;;;;23.48;9.15;;;;;;;18.76;74.01;101354.47;5097660;27;96469;-34
2022/06/05 13:06:51;;;;;;;15.60;7.47;;;;;;;18.75;74.57;101352.72;5078797;27;96816;-34
2022/06/05 13:09:22;;;;;;;;;;;;;;;18.74;74.68;101357.34;5056731;27;98003;-34
2022/06/05 13:11:56;;;;;;;17.02;7.20;;;;;;;18.67;74.27;101348.78;5056578;27;99669;-34
2022/06/05 13:14:49;;;;;;;17.10;7.93;;;;;;;18.71;74.55;101359.47;5055109;27;96651;-34
2022/06/05 13:17:32;;;;;;;16.13;7.93;;;;;;;18.68;74.26;101350.50;5056558;27;96767;-34
2022/06/05 13:20:50;;;;;;;22.33;8.25;;;;;;;18.71;75.40;101356.75;5054111;27;100990;-34
2022/06/05 13:23:37;;;;;;;19.60;7.95;;;;;;;18.63;74.70;101350.06;5021324;27;97809;-35
2022/06/05 13:26:06;;;;;;;17.00;7.38;;;;;;;18.65;75.34;101349.94;5056048;27;96691;-35
2022/06/05 13:28:39;;;;;;;22.00;8.27;;;;;;;18.64;74.14;101354.56;5056279;27;96822;-34
2022/06/05 13:31:30;;;;;;;23.40;8.38;;;;;;;18.62;74.92;101345.59;5054534;27;100904;-35
2022/06/05 13:34:19;;;;;;;16.75;8.32;;;;;;;18.64;74.82;101346.31;5055765;27;97335;-34
2022/06/05 13:37:14;;;;;;;17.75;7.63;;;;;;;18.64;75.03;101343.56;5054707;27;96590;-34
2022/06/05 13:39:53;;;;;;;20.38;8.18;;;;;;;18.63;74.59;101344.56;5056025;27;96781;-34
2022/06/05 13:42:22;;;;;;;23.10;8.70;;;;;;;18.60;74.05;101333.88;5054390;27;101152;-34
2022/06/05 13:44:57;;;;;;;17.55;8.05;;;;;;;18.62;75.01;101341.97;5054202;27;101307;-34
2022/06/05 13:47:41;;;;;;;15.63;8.20;;;;;;;18.60;74.91;101344.84;5053964;27;96611;-34
2022/06/05 13:50:22;;;;;;;21.88;8.60;;;;;;;18.59;75.28;101337.63;5054285;27;96693;-34
2022/06/05 13:53:14;;;;;;;25.73;8.25;;;;;;;18.59;76.04;101336.72;5055736;27;97883;-34
2022/06/05 13:55:39;;;;;;;18.70;7.80;;;;;;;18.56;74.85;101340.63;5049574;27;99327;-34
2022/06/05 13:58:27;;;;;;;17.65;8.30;;;;;;;18.56;76.37;101335.13;5055993;27;96729;-34
2022/06/05 14:01:36;;;;;;;19.58;8.02;;;;;;;18.53;76.43;101334.53;5054392;27;96842;-34
2022/06/05 14:04:25;;;;;;;21.08;8.50;;;;;;;18.46;77.10;101326.84;5053519;27;98288;-34
2022/06/05 14:06:50;;;;;;;24.40;9.77;;;;;;;18.45;76.50;101325.13;5054327;27;100490;-34
2022/06/05 14:09:37;;;;;;;19.80;9.15;;;;;;;18.43;77.36;101320.75;5095785;27;96631;-34
2022/06/05 14:12:03;;;;;;;21.38;9.52;;;;;;;18.40;76.59;101321.00;5096154;27;96851;-34
2022/06/05 14:14:42;;;;;;;18.38;8.80;;;;;;;18.35;76.37;101318.69;5077063;27;100032;-34
2022/06/05 14:17:34;;;;;;;21.20;9.43;;;;;;;18.34;76.92;101327.91;5096756;27;96601;-34
2022/06/05 14:20:01;;;;;;;21.30;9.25;;;;;;;18.32;75.91;101331.78;5095499;27;96789;-34
2022/06/05 14:22:31;;;;;;;25.38;10.35;;;;;;;18.37;76.46;101337.75;5077799;27;96809;-34
2022/06/05 14:24:58;;;;;;;21.95;7.85;;;;;;;18.35;76.82;101317.81;5077535;27;101017;-34
2022/06/05 14:27:38;;;;;;;21.73;9.10;;;;;;;18.31;77.86;101316.34;5095899;27;98366;-34
2022/06/05 14:30:20;;;;;;;19.77;9.93;;;;;;;18.28;78.17;101317.47;5077850;27;96723;-34
2022/06/05 14:32:47;;;;;;;22.00;10.13;;;;;;;18.30;77.38;101320.94;5096604;27;96737;-34
2022/06/05 14:35:15;;;;;;;21.27;9.70;;;;;;;18.23;78.11;101322.47;5111937;27;101115;-34
2022/06/05 14:37:49;;;;;;;27.05;10.55;;;;;;;18.18;78.05;101316.53;5095926;27;97000;-34
2022/06/05 14:40:19;;;;;;;20.58;8.65;;;;;;;18.14;77.77;101320.53;5095566;27;96551;-34
2022/06/05 14:43:14;;;;;;;26.45;10.40;;;;;;;18.12;77.91;101328.91;5111964;27;96800;-34
2022/06/05 14:45:50;;;;;;;19.58;8.80;;;;;;;18.07;77.57;101328.44;5077245;27;101100;-34
2022/06/05 14:48:29;;;;;;;22.15;9.85;;;;;;;18.02;77.97;101328.81;5111567;27;101324;-35
2022/06/05 14:51:04;;;;;;;19.52;9.45;;;;;;;17.97;77.71;101332.94;5077384;27;96673;-34
2022/06/05 14:53:44;;;;;;;25.30;9.18;;;;;;;17.93;77.97;101329.59;5077538;27;96748;-34
2022/06/05 14:59:17;;;;;;;16.42;8.25;;;;;;;17.89;78.01;101336.34;5096683;27;96986;-34
2022/06/05 15:01:56;;;;;;;20.70;8.75;;;;;;;17.87;78.36;101341.06;5080971;27;96709;-34
2022/06/05 15:04:39;;;;;;;24.27;8.75;;;;;;;17.85;77.99;101331.25;5081143;27;96717;-34
2022/06/05 15:07:27;;;;;;;23.52;8.55;;;;;;;17.81;77.79;101330.66;5098372;27;97480;-34
2022/06/05 15:10:04;;;;;;;29.55;9.68;;;;;;;17.73;78.43;101327.63;5099204;27;99329;-34
2022/06/05 15:13:21;;;;;;;23.33;8.98;;;;;;;17.76;79.14;101338.38;5099016;27;96667;-34
2022/06/05 15:15:56;;;;;;;22.65;9.32;;;;;;;17.76;77.95;101321.91;5062139;27;96786;-34
2022/06/05 15:18:22;;;;;;;22.02;8.45;;;;;;;17.72;77.96;101321.28;5115083;27;100779;-34
2022/06/05 15:21:02;;;;;;;22.08;9.93;;;;;;;17.71;78.35;101325.03;5114967;27;100908;-34
2022/06/05 15:23:33;;;;;;;24.35;9.88;;;;;;;17.74;77.79;101330.25;5099538;27;96588;-34
2022/06/05 15:26:39;;;;;;;21.77;9.70;;;;;;;17.71;78.91;101330.53;5099367;27;96901;-34
2022/06/05 15:29:29;;;;;;;22.52;8.77;;;;;;;17.69;78.34;101327.03;5085380;27;97507;-34
2022/06/05 15:32:13;;;;;;;19.73;8.95;;;;;;;17.70;78.65;101328.75;5098679;27;99110;-34
2022/06/05 15:34:46;;;;;;;25.65;9.15;;;;;;;17.70;77.81;101326.03;5079813;27;96858;-34
2022/06/05 15:37:41;;;;;;;21.15;9.05;;;;;;;17.73;78.00;101325.78;5080588;27;96786;-34
2022/06/05 15:40:31;;;;;;;17.83;8.55;;;;;;;17.72;77.93;101326.78;5098063;27;99364;-34
2022/06/05 15:43:11;;;;;;;22.42;8.93;;;;;;;17.69;78.42;101316.09;5098888;27;97895;-34
2022/06/05 15:46:06;;;;;;;26.42;9.55;;;;;;;17.73;78.36;101324.91;5080366;27;96546;-34
2022/06/05 15:48:41;;;;;;;22.17;8.93;;;;;;;17.71;78.34;101324.16;5079969;27;96922;-34
2022/06/05 15:51:19;;;;;;;27.98;10.23;;;;;;;17.68;79.07;101308.84;5079804;27;101613;-34
2022/06/05 15:54:06;;;;;;;24.70;9.52;;;;;;;17.67;78.71;101317.22;5080345;27;100935;-34
2022/06/05 15:56:52;;;;;;;21.00;9.27;;;;;;;17.62;78.49;101303.91;5080340;27;96620;-34
2022/06/05 15:59:30;;;;;;;24.77;10.15;;;;;;;17.63;78.96;101311.97;5079980;27;96880;-34
2022/06/05 16:02:03;;;;;;;24.85;10.38;;;;;;;17.60;79.79;101305.88;5098144;27;97937;-34
2022/06/05 16:04:34;;;;;;;23.38;8.90;;;;;;;17.62;78.69;101306.63;5079733;27;100768;-34
2022/06/05 16:07:02;;;;;;;23.73;9.93;;;;;;;17.63;78.85;101306.47;5098267;27;96602;-34
2022/06/05 16:09:34;;;;;;;18.08;8.45;;;;;;;17.63;79.16;101301.00;5079811;27;96723;-35
2022/06/05 16:12:16;;;;;;;24.73;9.88;;;;;;;17.60;79.23;101306.75;5078121;27;99144;-34
2022/06/05 16:14:47;;;;;;;;;;;;;;;17.65;79.86;101313.72;5098703;27;97833;-34
2022/06/05 16:17:24;;;;;;;18.80;7.70;;;;;;;17.61;79.70;101304.88;5098798;27;96546;-34
2022/06/05 16:20:07;;;;;;;24.33;9.93;;;;;;;17.49;79.41;101293.06;5098998;27;96738;-34
2022/06/05 16:22:45;;;;;;;22.25;9.13;;;;;;;17.54;79.84;101307.28;5079490;27;100938;-34
2022/06/05 16:25:18;;;;;;;19.95;9.05;;;;;;;17.50;80.55;101302.19;5079244;27;100798;-34
2022/06/05 16:27:49;;;;;;;26.75;9.60;;;;;;;17.47;79.29;101306.06;5098138;27;96759;-33
2022/06/05 16:30:38;;;;;;;22.38;8.77;;;;;;;17.53;80.53;101316.47;5079577;27;96768;-33
2022/06/05 16:33:04;;;;;;;21.23;8.90;;;;;;;17.47;79.73;101313.38;5079002;27;101114;-33
2022/06/05 16:38:26;;;;;;;24.65;8.88;;;;;;;17.49;80.00;101322.34;5097328;27;96579;-33
2022/06/05 16:41:02;;;;;;;22.35;8.30;;;;;;;17.50;79.92;101326.84;5079293;27;96928;-33
2022/06/05 16:43:31;;;;;;;15.98;7.47;;;;;;;17.45;79.45;101320.84;5079218;27;100815;-33
2022/06/05 16:46:05;;;;;;;21.77;10.27;;;;;;;17.44;79.72;101328.19;5113794;27;101096;-33
2022/06/05 16:48:50;;;;;;;20.15;8.80;;;;;;;17.42;79.65;101321.97;5079340;27;96548;-33
2022/06/05 16:51:15;;;;;;;21.60;8.68;;;;;;;17.44;79.53;101319.13;5113848;27;96783;-33
2022/06/05 16:53:46;;;;;;;23.95;9.25;;;;;;;17.44;79.53;101321.88;5097155;27;97981;-33
2022/06/05 16:56:18;;;;;;;20.43;8.87;;;;;;;17.45;79.99;101334.53;5078860;27;100826;-33
2022/06/05 16:58:57;;;;;;;23.98;8.82;;;;;;;17.40;80.77;101344.03;5079178;27;96497;-33
2022/06/05 17:01:25;;;;;;;22.80;8.35;;;;;;;17.40;79.53;101349.50;5079213;27;96765;-33
2022/06/05 17:04:13;;;;;;;23.92;8.55;;;;;;;17.40;80.62;101352.25;5097061;27;99506;-33
2022/06/05 17:07:25;;;;;;;25.88;9.60;;;;;;;17.36;80.29;101367.19;5078602;27;100666;-33
2022/06/05 17:09:52;;;;;;;19.20;7.33;;;;;;;17.33;80.16;101356.50;5097438;27;96600;-33
2022/06/05 17:12:30;;;;;;;22.10;9.68;;;;;;;17.30;80.77;101361.34;5079039;27;96910;-33
2022/06/05 17:14:55;;;;;;;20.85;8.52;;;;;;;17.32;81.29;101356.59;5113193;27;101510;-33
2022/06/05 17:17:27;;;;;;;24.83;9.95;;;;;;;17.27;80.72;101347.91;5097262;27;97828;-33
2022/06/05 17:19:58;;;;;;;24.90;9.35;;;;;;;17.25;80.64;101350.75;5078228;27;96656;-33
2022/06/05 17:22:37;;;;;;;22.90;9.60;;;;;;;17.22;81.03;101341.94;5078399;27;96979;-33
2022/06/05 17:25:21;;;;;;;18.67;9.15;;;;;;;17.24;81.20;101345.44;5096872;27;99299;-33
2022/06/05 17:27:56;;;;;;;17.73;8.82;;;;;;;17.22;80.64;101348.28;5097188;27;97276;-33